Arteixo, Spain
Current Conditions -  °F | °C
As of 7:30 AM on Wednesday 26 Nov 2014 (Local Time) from LECO Reporting Station
Light Fog Light Fog  
Wind Chill: 41°   Ceiling: Unl
Heat Index: 41°   Visibility: 4mi
Dew Point: 41°   Wind: 2mph
Humidity: 100%   Direction: NA
Pressure: 29.94"   Gusts: NA
Location:  43.3°N, 8.51°W
Report Text: LECO 260630Z VRB02KT 6000 BCFG NSC 05/05 Q1014 NOSIG
Loading
Personal Weather Stations






























Interactive Weather Map New forecast layout! Learn more

10-Day Weather Forecast

Advertisements
Track Severe Weather on mobile